Mac Dill Air Force Base
KMCF : now visible

Airfield :











YOU CAN JOIN US ON...

 
LOGIN :

Register | Disclaimer

   EN    FR    IT 

 









Legend :    VFR   Marginal VFR   IFR   Intensive IFR   Very Intensive IFR
Visi :
Ceiling :
>= 8 km
>= 3000ft
5 to 8 km
1000 to 3000 ft
1500m to 5 km
500 to 1000 ft
800 to 1500m
200 to 500 ft
< 800m
< 200 ft
Symbols :   Thunderstorms  Fog  Heavy snow  Heavy precipitations  Wind > 20 kt







- Airport Elevation : 14 ft


KMCF - Mac Dill Air Force Base

CURRENT METAR :
  • 210556Z AUTO 14006KT 10SM CLR 24/21 A2995 RMK AO2 DZE00 SLP145 P0000 60000 T02440207 10291 20242 58013 FZRANO $

EXPIRED METARs :
  • 210500Z AUTO 12006KT 10SM BKN110 25/21 A2997 RMK AO2 DZE00 SLP152 FZRANO $
  • 210456Z AUTO 12005KT 10SM -DZ FEW085 OVC110 25/21 A2997 RMK AO2 DZE00DZB51 SLP152 P0000 T02540208 403260209 FZRANO $
  • 210400Z AUTO 07004KT 10SM BKN033 OVC049 25/21 A2998 RMK AO2 DZE00 SLP155 FZRANO $

TAF TAF KMCF
Valid from the 21 at 00:00 until the 22 at 06:00 UTC


210000Z 2100/2206 34009KT 9999 SCT030 QNH2994INS
BECMG 2103/2104 VRB06KT 9999 SCT020 BKN035 QNH2991INS
BECMG 2116/2117 VRB06KT 9999 FEW080 QNH2990INS TX33/2120Z TN22/2111Z
KZMA FIR / North America



MET'MAP, your aeronautical weather chart ! - Copyright ORBIFLY December 2007 - Disclaimer

ORBIFLY MET'MAP TEAM :

Programming & Development : Alexandra Zaïnal
Concept & Development : Baudouin d'Aumeries
Co-Development & Prog : Marc-Olivier Méhu
Technical & hardware support : Manuel Goepfert

Contact : metmap@orbifly.com




SOURCES & CREDITS :

   NOAA       Earth
Advisory